Time;durP1;ratioP1;P1;durP2;ratioP2;P2;SDS_P1;SDS_P2;PMS_P1;PMS_P2;Temp;Humidity;BMP_temperature;BMP_pressure;BME280_temperature;BME280_humidity;BME280_pressure;Samples;Min_cycle;Max_cycle;Signal;HPM_P1;HPM_P2
2022/12/25 00:01:43;;;;;;;13.50;2.07;;;;;;;;;;5003767;28;20089;-92
2022/12/25 00:04:08;;;;;;;10.63;1.92;;;;;;;;;;4996067;28;20338;-93
2022/12/25 00:06:33;;;;;;;9.97;2.07;;;;;;;;;;5016272;28;20762;-92
2022/12/25 00:08:58;;;;;;;9.88;2.15;;;;;;;;;;4998228;28;20277;-93
2022/12/25 00:11:23;;;;;;;10.80;2.30;;;;;;;;;;5014893;28;20022;-92
2022/12/25 00:13:49;;;;;;;12.10;2.53;;;;;;;;;;5015459;28;20035;-93
2022/12/25 00:16:16;;;;;;;16.98;2.22;;;;;;;;;;5015036;28;20178;-92
2022/12/25 00:18:41;;;;;;;12.23;2.20;;;;;;;;;;4997214;28;20038;-94
2022/12/25 00:21:07;;;;;;;15.02;2.90;;;;;;;;;;5001135;28;20040;-93
2022/12/25 00:23:32;;;;;;;9.80;2.10;;;;;;;;;;5015638;28;20022;-92
2022/12/25 00:25:58;;;;;;;12.10;2.17;;;;;;;;;;4994142;28;20210;-92
2022/12/25 00:28:23;;;;;;;14.43;2.20;;;;;;;;;;4993915;28;20026;-92
2022/12/25 00:30:49;;;;;;;12.10;2.35;;;;;;;;;;4995017;28;20022;-92
2022/12/25 00:33:15;;;;;;;12.80;2.20;;;;;;;;;;5029401;28;20036;-91
2022/12/25 00:35:40;;;;;;;13.95;2.45;;;;;;;;;;5025249;28;20033;-94
2022/12/25 00:38:05;;;;;;;13.60;2.17;;;;;;;;;;5007952;28;20033;-93
2022/12/25 00:40:30;;;;;;;12.18;2.28;;;;;;;;;;4999474;28;20410;-93
2022/12/25 00:42:56;;;;;;;10.95;2.20;;;;;;;;;;5013439;28;20014;-94
2022/12/25 00:45:21;;;;;;;11.50;2.60;;;;;;;;;;5018291;28;20033;-93
2022/12/25 00:47:46;;;;;;;11.40;2.80;;;;;;;;;;5033466;28;20318;-92
2022/12/25 00:50:12;;;;;;;10.68;1.90;;;;;;;;;;5023917;28;20024;-93
2022/12/25 00:52:37;;;;;;;14.18;2.00;;;;;;;;;;5006514;28;20096;-91
2022/12/25 00:55:03;;;;;;;12.02;1.95;;;;;;;;;;5004503;28;20026;-93
2022/12/25 00:57:28;;;;;;;15.30;2.30;;;;;;;;;;5017201;28;20057;-93
2022/12/25 00:59:53;;;;;;;9.73;2.00;;;;;;;;;;4994658;28;20025;-93
2022/12/25 01:02:24;;;;;;;13.23;2.38;;;;;;;;;;5021677;28;20049;-94
2022/12/25 01:04:50;;;;;;;10.68;2.40;;;;;;;;;;5008505;28;20089;-92
2022/12/25 01:07:16;;;;;;;14.77;1.90;;;;;;;;;;5013356;28;20128;-94
2022/12/25 01:12:27;;;;;;;16.45;2.20;;;;;;;;;;5014619;28;20056;-93
2022/12/25 01:14:55;;;;;;;12.43;2.00;;;;;;;;;;4998058;28;20025;-92
2022/12/25 01:17:20;;;;;;;12.02;1.70;;;;;;;;;;5021611;28;20028;-92
2022/12/25 01:19:47;;;;;;;10.98;2.00;;;;;;;;;;5020994;28;20041;-93
2022/12/25 01:22:12;;;;;;;8.95;1.77;;;;;;;;;;5019108;28;20029;-92
2022/12/25 01:24:37;;;;;;;12.77;2.25;;;;;;;;;;5001951;28;20029;-93
2022/12/25 01:27:02;;;;;;;13.10;2.08;;;;;;;;;;5013917;28;20091;-93
2022/12/25 01:29:28;;;;;;;15.25;2.20;;;;;;;;;;5001977;28;20072;-92
2022/12/25 01:31:53;;;;;;;11.07;2.00;;;;;;;;;;5016628;28;20095;-92
2022/12/25 01:34:18;;;;;;;12.13;2.13;;;;;;;;;;5010211;28;20298;-92
2022/12/25 01:36:43;;;;;;;8.65;1.90;;;;;;;;;;5013174;28;20367;-91
2022/12/25 01:39:09;;;;;;;9.55;1.55;;;;;;;;;;4997372;28;20040;-94
2022/12/25 01:41:34;;;;;;;7.78;1.90;;;;;;;;;;4998363;28;20079;-93
2022/12/25 01:44:01;;;;;;;8.32;1.50;;;;;;;;;;5012944;28;20022;-91
2022/12/25 01:46:27;;;;;;;9.05;1.80;;;;;;;;;;4990938;28;20669;-92
2022/12/25 01:48:53;;;;;;;12.32;1.50;;;;;;;;;;5001850;28;20135;-92
2022/12/25 01:51:24;;;;;;;9.05;1.38;;;;;;;;;;5015881;28;20029;-91
2022/12/25 01:53:50;;;;;;;12.98;1.67;;;;;;;;;;5015706;28;20282;-92
2022/12/25 01:56:15;;;;;;;12.38;1.60;;;;;;;;;;5017394;28;20037;-92
2022/12/25 01:58:41;;;;;;;10.25;1.60;;;;;;;;;;4997552;28;20496;-92
2022/12/25 02:01:07;;;;;;;11.55;1.67;;;;;;;;;;5019561;28;20025;-92
2022/12/25 02:03:32;;;;;;;9.68;1.80;;;;;;;;;;5015816;28;20032;-92
2022/12/25 02:05:58;;;;;;;8.95;1.50;;;;;;;;;;5010986;28;20025;-92
2022/12/25 02:08:23;;;;;;;8.07;1.50;;;;;;;;;;4994732;28;21108;-93
2022/12/25 02:10:49;;;;;;;10.73;1.40;;;;;;;;;;4994652;28;20551;-93
2022/12/25 02:13:16;;;;;;;9.35;1.73;;;;;;;;;;4999138;28;20026;-93
2022/12/25 02:15:41;;;;;;;6.13;1.13;;;;;;;;;;5005086;28;20384;-94
2022/12/25 02:18:25;;;;;;;10.40;1.57;;;;;;;;;;5017878;28;20787;-93
2022/12/25 02:20:50;;;;;;;6.68;1.15;;;;;;;;;;5003829;28;20270;-94
2022/12/25 02:23:34;;;;;;;11.10;1.50;;;;;;;;;;5021382;28;20029;-94
2022/12/25 02:26:02;;;;;;;11.82;1.65;;;;;;;;;;5017391;28;20325;-94
2022/12/25 02:28:31;;;;;;;10.10;1.70;;;;;;;;;;4999664;28;20064;-93
2022/12/25 02:31:11;;;;;;;6.03;1.20;;;;;;;;;;4999568;28;20025;-93
2022/12/25 02:34:03;;;;;;;8.55;1.40;;;;;;;;;;5013793;28;21489;-94
2022/12/25 02:36:31;;;;;;;9.25;1.40;;;;;;;;;;4993213;28;20029;-93
2022/12/25 02:41:44;;;;;;;7.55;1.00;;;;;;;;;;5013646;28;20028;-93
2022/12/25 03:06:42;;;;;;;8.70;1.90;;;;;;;;;;5021420;28;20044;-92
2022/12/25 03:12:26;;;;;;;14.43;2.00;;;;;;;;;;5023732;28;20036;-93
2022/12/25 03:17:36;;;;;;;10.05;2.40;;;;;;;;;;5023002;28;20174;-92
2022/12/25 03:28:14;;;;;;;15.60;3.22;;;;;;;;;;5024754;28;20044;-93
2022/12/25 03:31:10;;;;;;;15.23;3.25;;;;;;;;;;5004768;28;20204;-93
2022/12/25 03:37:04;;;;;;;12.38;3.25;;;;;;;;;;5024130;28;20078;-93
2022/12/25 04:37:43;;;;;;;22.00;4.20;;;;;;;;;;5020692;28;20041;-92
2022/12/25 04:40:09;;;;;;;16.20;3.85;;;;;;;;;;5018333;28;20083;-92
2022/12/25 04:42:34;;;;;;;16.58;3.60;;;;;;;;;;5001729;28;20071;-92
2022/12/25 04:44:59;;;;;;;19.92;4.30;;;;;;;;;;5002803;28;20121;-91
2022/12/25 04:47:24;;;;;;;17.58;3.90;;;;;;;;;;5001491;28;20075;-91
2022/12/25 04:49:50;;;;;;;19.92;3.83;;;;;;;;;;5021635;28;20066;-91
2022/12/25 04:52:15;;;;;;;14.52;3.80;;;;;;;;;;5002384;28;20134;-92
2022/12/25 04:54:40;;;;;;;16.83;3.60;;;;;;;;;;5002668;28;20108;-93
2022/12/25 04:57:06;;;;;;;22.70;4.30;;;;;;;;;;5000111;28;20041;-93
2022/12/25 04:59:33;;;;;;;20.13;3.83;;;;;;;;;;5003023;28;20524;-92
2022/12/25 05:01:58;;;;;;;15.88;3.20;;;;;;;;;;5002259;28;20033;-93
2022/12/25 05:04:23;;;;;;;20.75;4.28;;;;;;;;;;5002404;28;20053;-91
2022/12/25 05:06:49;;;;;;;20.38;3.95;;;;;;;;;;5002241;28;20022;-90
2022/12/25 05:09:14;;;;;;;16.57;4.13;;;;;;;;;;5020897;28;20030;-92
2022/12/25 05:11:39;;;;;;;18.67;3.47;;;;;;;;;;5001750;28;20274;-92
2022/12/25 05:14:04;;;;;;;21.02;3.60;;;;;;;;;;5000152;28;20515;-92
2022/12/25 05:16:30;;;;;;;18.17;4.18;;;;;;;;;;5000668;28;20029;-92
2022/12/25 05:18:55;;;;;;;15.83;3.67;;;;;;;;;;5000731;28;20021;-92
2022/12/25 05:21:21;;;;;;;16.30;4.05;;;;;;;;;;4997138;28;20278;-93
2022/12/25 05:23:52;;;;;;;23.15;4.50;;;;;;;;;;5002931;28;20025;-92
2022/12/25 05:26:19;;;;;;;14.38;3.72;;;;;;;;;;4997823;28;20044;-91
2022/12/25 05:28:46;;;;;;;21.52;4.10;;;;;;;;;;4997803;28;20033;-91
2022/12/25 05:31:11;;;;;;;18.73;3.53;;;;;;;;;;5002472;28;20079;-90
2022/12/25 05:33:36;;;;;;;18.98;3.78;;;;;;;;;;5012153;28;20096;-93
2022/12/25 05:36:02;;;;;;;21.50;4.10;;;;;;;;;;5004026;28;20152;-92
2022/12/25 05:38:28;;;;;;;19.58;3.58;;;;;;;;;;5002710;28;20283;-92
2022/12/25 05:40:53;;;;;;;18.90;4.03;;;;;;;;;;5003420;28;20374;-92
2022/12/25 05:43:18;;;;;;;14.80;3.90;;;;;;;;;;5019005;28;20461;-92
2022/12/25 05:45:44;;;;;;;17.80;3.97;;;;;;;;;;4997111;28;20326;-92
2022/12/25 05:48:09;;;;;;;15.30;3.30;;;;;;;;;;5022220;28;20112;-92
2022/12/25 05:50:35;;;;;;;16.13;3.92;;;;;;;;;;5001280;28;20029;-93
2022/12/25 05:53:02;;;;;;;19.08;4.25;;;;;;;;;;5002910;28;20048;-93
2022/12/25 05:55:27;;;;;;;18.52;3.60;;;;;;;;;;5001037;28;20404;-92
2022/12/25 05:57:52;;;;;;;19.67;4.00;;;;;;;;;;5000886;28;20029;-93
2022/12/25 06:00:18;;;;;;;20.93;3.80;;;;;;;;;;5002779;28;20056;-92
2022/12/25 06:02:43;;;;;;;15.98;3.67;;;;;;;;;;5001196;28;20335;-93
2022/12/25 06:05:08;;;;;;;17.53;4.07;;;;;;;;;;5020144;28;20029;-93
2022/12/25 06:07:34;;;;;;;14.43;3.90;;;;;;;;;;5000044;28;20288;-94
2022/12/25 06:09:59;;;;;;;18.83;4.07;;;;;;;;;;5010087;28;20033;-93
2022/12/25 06:12:24;;;;;;;16.63;3.75;;;;;;;;;;5006404;28;20115;-92
2022/12/25 06:14:49;;;;;;;25.63;4.75;;;;;;;;;;5029633;28;20029;-93
2022/12/25 06:17:15;;;;;;;17.23;3.83;;;;;;;;;;5030044;28;20513;-93
2022/12/25 06:19:41;;;;;;;17.27;3.88;;;;;;;;;;5022160;28;20761;-91
2022/12/25 06:22:06;;;;;;;17.20;3.88;;;;;;;;;;5007510;28;20041;-92
2022/12/25 06:24:31;;;;;;;19.02;4.32;;;;;;;;;;5010550;28;20032;-92
2022/12/25 06:26:56;;;;;;;20.67;4.38;;;;;;;;;;5025501;28;20068;-92
2022/12/25 06:29:22;;;;;;;24.63;3.92;;;;;;;;;;5000606;28;20475;-92
2022/12/25 06:31:47;;;;;;;23.23;4.95;;;;;;;;;;5019777;28;20033;-93
2022/12/25 06:34:15;;;;;;;20.30;4.00;;;;;;;;;;5003314;28;20033;-93
2022/12/25 06:36:40;;;;;;;20.15;3.40;;;;;;;;;;5006764;28;20346;-92
2022/12/25 06:39:06;;;;;;;19.73;5.10;;;;;;;;;;5003251;28;20036;-91
2022/12/25 06:41:31;;;;;;;18.85;4.00;;;;;;;;;;4999997;28;20087;-91
2022/12/25 06:43:57;;;;;;;20.75;3.90;;;;;;;;;;5004643;28;20108;-93
2022/12/25 06:46:24;;;;;;;17.88;4.10;;;;;;;;;;5020491;28;20100;-93
2022/12/25 06:48:49;;;;;;;14.00;5.03;;;;;;;;;;5005308;28;20498;-94
2022/12/25 06:51:21;;;;;;;22.13;4.25;;;;;;;;;;5003354;28;20045;-93
2022/12/25 06:53:47;;;;;;;20.58;3.80;;;;;;;;;;5005653;28;20388;-92
2022/12/25 06:56:14;;;;;;;18.92;3.95;;;;;;;;;;5024257;28;20075;-93
2022/12/25 06:58:47;;;;;;;20.92;3.83;;;;;;;;;;5005519;28;20112;-93
2022/12/25 07:01:20;;;;;;;16.65;4.53;;;;;;;;;;5001957;28;20018;-91
2022/12/25 07:03:46;;;;;;;15.27;4.07;;;;;;;;;;5005485;28;20132;-92
2022/12/25 07:06:11;;;;;;;15.93;3.88;;;;;;;;;;5004807;28;20060;-91
2022/12/25 07:08:37;;;;;;;16.33;3.73;;;;;;;;;;5023079;28;20025;-93
2022/12/25 07:11:02;;;;;;;15.45;3.95;;;;;;;;;;5001615;28;20266;-93
2022/12/25 07:13:28;;;;;;;23.90;4.05;;;;;;;;;;4998862;28;20022;-92
2022/12/25 07:15:59;;;;;;;18.63;3.83;;;;;;;;;;5023556;28;20057;-91
2022/12/25 07:18:25;;;;;;;18.60;3.60;;;;;;;;;;5024802;28;20021;-91
2022/12/25 07:20:51;;;;;;;17.08;3.40;;;;;;;;;;5025157;28;20518;-92
2022/12/25 07:23:16;;;;;;;26.30;4.68;;;;;;;;;;5008475;28;20026;-93
2022/12/25 07:25:41;;;;;;;14.45;3.63;;;;;;;;;;5024462;28;20035;-92
2022/12/25 07:28:06;;;;;;;17.15;4.00;;;;;;;;;;5008127;28;20552;-91
2022/12/25 07:30:32;;;;;;;19.23;4.10;;;;;;;;;;5007535;28;20109;-92
2022/12/25 07:32:57;;;;;;;16.63;3.60;;;;;;;;;;5024925;28;20310;-92
2022/12/25 07:35:22;;;;;;;15.77;4.07;;;;;;;;;;5005979;28;20488;-95
2022/12/25 07:37:47;;;;;;;16.23;4.03;;;;;;;;;;5011401;28;21060;-94
2022/12/25 07:40:13;;;;;;;16.67;3.75;;;;;;;;;;5014393;28;20056;-93
2022/12/25 07:42:38;;;;;;;17.20;4.22;;;;;;;;;;5013309;28;20447;-94
2022/12/25 07:45:04;;;;;;;16.65;4.13;;;;;;;;;;5015501;28;20361;-93
2022/12/25 07:47:29;;;;;;;13.35;3.45;;;;;;;;;;5015033;28;20033;-95
2022/12/25 07:49:54;;;;;;;21.65;4.22;;;;;;;;;;5013308;28;20026;-95
2022/12/25 07:52:19;;;;;;;26.40;4.18;;;;;;;;;;5013697;28;20033;-94
2022/12/25 07:54:45;;;;;;;18.70;4.25;;;;;;;;;;5014644;28;20029;-92
2022/12/25 07:57:10;;;;;;;17.42;3.78;;;;;;;;;;5013281;28;20163;-92
2022/12/25 07:59:35;;;;;;;22.67;4.03;;;;;;;;;;5003976;28;20025;-93
2022/12/25 08:02:00;;;;;;;15.15;3.60;;;;;;;;;;5008152;28;20589;-93
2022/12/25 08:04:26;;;;;;;20.02;3.92;;;;;;;;;;5008427;28;20026;-93
2022/12/25 08:06:52;;;;;;;20.88;4.28;;;;;;;;;;5012943;28;20112;-93
2022/12/25 08:09:17;;;;;;;16.40;3.35;;;;;;;;;;5026188;28;20030;-95
2022/12/25 08:11:43;;;;;;;17.48;3.40;;;;;;;;;;5026774;28;20018;-93
2022/12/25 08:14:09;;;;;;;20.00;4.22;;;;;;;;;;5024458;28;20426;-94
2022/12/25 08:16:38;;;;;;;14.68;3.83;;;;;;;;;;5012743;28;20029;-93
2022/12/25 08:19:03;;;;;;;16.83;3.80;;;;;;;;;;5033215;28;20062;-93
2022/12/25 08:21:28;;;;;;;19.90;3.65;;;;;;;;;;5012219;28;20095;-95
2022/12/25 08:23:54;;;;;;;24.17;3.90;;;;;;;;;;5031217;28;20140;-95
2022/12/25 08:26:20;;;;;;;20.60;3.75;;;;;;;;;;5010551;28;20504;-93
2022/12/25 08:28:46;;;;;;;20.73;4.78;;;;;;;;;;5024730;28;20045;-94
2022/12/25 08:31:16;;;;;;;25.75;4.28;;;;;;;;;;5008686;28;20113;-96
2022/12/25 08:33:41;;;;;;;23.30;4.00;;;;;;;;;;5015421;28;20033;-94
2022/12/25 08:36:08;;;;;;;26.92;4.15;;;;;;;;;;5025907;28;20034;-95
2022/12/25 08:38:33;;;;;;;21.15;3.55;;;;;;;;;;5018471;28;20059;-93
2022/12/25 08:40:58;;;;;;;22.35;4.40;;;;;;;;;;5027726;28;20780;-94
2022/12/25 08:43:24;;;;;;;19.77;3.90;;;;;;;;;;5012342;28;20026;-93
2022/12/25 08:45:49;;;;;;;29.38;4.80;;;;;;;;;;5023051;28;20267;-94
2022/12/25 08:48:14;;;;;;;17.38;3.80;;;;;;;;;;5021983;28;20020;-94
2022/12/25 08:50:44;;;;;;;21.48;3.60;;;;;;;;;;5014306;28;20029;-95
2022/12/25 08:53:09;;;;;;;16.83;3.60;;;;;;;;;;5012625;28;20017;-94
2022/12/25 08:55:34;;;;;;;17.17;3.50;;;;;;;;;;5014426;28;20038;-95
2022/12/25 08:57:59;;;;;;;19.85;3.75;;;;;;;;;;5007970;28;20026;-94
2022/12/25 09:00:24;;;;;;;18.07;3.50;;;;;;;;;;5009581;28;20017;-96
2022/12/25 09:02:54;;;;;;;16.30;3.50;;;;;;;;;;5012926;28;20369;-96
2022/12/25 09:05:22;;;;;;;13.70;3.38;;;;;;;;;;5035764;28;20310;-96
2022/12/25 09:07:50;;;;;;;17.92;3.28;;;;;;;;;;5033667;28;20022;-95
2022/12/25 09:10:16;;;;;;;23.58;4.28;;;;;;;;;;5015819;28;20029;-95
2022/12/25 09:12:41;;;;;;;19.38;3.83;;;;;;;;;;5012872;28;20036;-96
2022/12/25 09:15:07;;;;;;;19.40;3.90;;;;;;;;;;5008591;28;20113;-93
2022/12/25 09:17:32;;;;;;;29.77;3.78;;;;;;;;;;5020243;28;20022;-94
2022/12/25 09:19:58;;;;;;;13.60;3.38;;;;;;;;;;5009259;28;20025;-95
2022/12/25 09:22:23;;;;;;;20.00;3.35;;;;;;;;;;5014927;28;20348;-95
2022/12/25 09:24:48;;;;;;;18.67;3.28;;;;;;;;;;5008497;28;20033;-95
2022/12/25 09:27:14;;;;;;;16.45;3.40;;;;;;;;;;5026837;28;20504;-93
2022/12/25 09:29:39;;;;;;;15.75;3.10;;;;;;;;;;5008083;28;20033;-92
2022/12/25 09:32:05;;;;;;;16.58;3.03;;;;;;;;;;5010434;28;20030;-92
2022/12/25 09:34:31;;;;;;;16.17;3.28;;;;;;;;;;5008672;28;20037;-96
2022/12/25 09:36:56;;;;;;;21.50;3.75;;;;;;;;;;5011074;28;20014;-92
2022/12/25 09:39:22;;;;;;;13.65;3.25;;;;;;;;;;5011931;28;20105;-96
2022/12/25 09:41:56;;;;;;;25.05;3.33;;;;;;;;;;5013864;28;20029;-92
2022/12/25 09:44:24;;;;;;;17.95;4.00;;;;;;;;;;5027054;28;20133;-96
2022/12/25 09:46:52;;;;;;;18.63;3.25;;;;;;;;;;5011729;28;20025;-95
2022/12/25 09:49:27;;;;;;;18.35;3.60;;;;;;;;;;5015987;28;20104;-95
2022/12/25 09:51:55;;;;;;;21.83;3.03;;;;;;;;;;5016217;28;20025;-93
2022/12/25 09:54:35;;;;;;;13.15;2.78;;;;;;;;;;5023766;28;20022;-95
2022/12/25 09:57:00;;;;;;;18.98;3.38;;;;;;;;;;5024019;28;20028;-93
2022/12/25 09:59:26;;;;;;;18.63;3.28;;;;;;;;;;5005470;28;20022;-93
2022/12/25 10:01:51;;;;;;;25.67;3.58;;;;;;;;;;5011550;28;20026;-91
2022/12/25 10:04:26;;;;;;;22.53;4.30;;;;;;;;;;5012659;28;20145;-94
2022/12/25 10:07:23;;;;;;;23.83;4.20;;;;;;;;;;5012866;28;20282;-95
2022/12/25 10:10:08;;;;;;;23.75;4.50;;;;;;;;;;4946372;28;20042;-94
2022/12/25 10:12:58;;;;;;;25.45;4.30;;;;;;;;;;4934155;29;20827;-96
2022/12/25 10:15:32;;;;;;;19.30;3.25;;;;;;;;;;4934565;28;20035;-94
2022/12/25 10:18:15;;;;;;;24.58;4.20;;;;;;;;;;4946344;28;20146;-94
2022/12/25 10:21:01;;;;;;;20.02;3.47;;;;;;;;;;4947139;28;20047;-95
2022/12/25 10:23:34;;;;;;;15.50;4.13;;;;;;;;;;4932241;29;20122;-96
2022/12/25 10:26:26;;;;;;;16.38;3.50;;;;;;;;;;4949302;29;20518;-94
2022/12/25 10:28:59;;;;;;;21.67;3.80;;;;;;;;;;4935089;29;20114;-93
2022/12/25 10:31:28;;;;;;;19.13;3.70;;;;;;;;;;4932969;28;20027;-95
2022/12/25 10:33:53;;;;;;;23.67;3.38;;;;;;;;;;4942137;28;20773;-96
2022/12/25 10:36:22;;;;;;;21.88;3.17;;;;;;;;;;4942800;28;20035;-96
2022/12/25 10:38:48;;;;;;;17.65;3.40;;;;;;;;;;4929815;28;20154;-94
2022/12/25 10:44:10;;;;;;;18.00;4.32;;;;;;;;;;4949632;28;20114;-96
2022/12/25 10:46:36;;;;;;;28.42;4.72;;;;;;;;;;5007201;28;20045;-94
2022/12/25 10:49:01;;;;;;;16.80;3.60;;;;;;;;;;5017349;28;20021;-96
2022/12/25 10:51:28;;;;;;;20.67;4.13;;;;;;;;;;5009746;28;20060;-94
2022/12/25 10:53:53;;;;;;;23.33;4.00;;;;;;;;;;5025080;28;20085;-96
2022/12/25 10:56:19;;;;;;;22.45;3.58;;;;;;;;;;5022050;28;20049;-96
2022/12/25 10:58:44;;;;;;;16.63;3.57;;;;;;;;;;5028834;28;20053;-96
2022/12/25 11:01:17;;;;;;;22.52;3.88;;;;;;;;;;5024486;28;20583;-95
2022/12/25 11:03:47;;;;;;;19.63;3.38;;;;;;;;;;5008542;28;20132;-95
2022/12/25 11:06:26;;;;;;;17.55;3.58;;;;;;;;;;5010621;28;20038;-95
2022/12/25 11:08:58;;;;;;;22.23;4.72;;;;;;;;;;5039512;28;20017;-94
2022/12/25 11:11:24;;;;;;;19.03;4.20;;;;;;;;;;5023432;28;20022;-95
2022/12/25 11:13:52;;;;;;;19.58;4.07;;;;;;;;;;5015849;28;20286;-95
2022/12/25 11:16:34;;;;;;;23.15;4.07;;;;;;;;;;5013136;28;20021;-96
2022/12/25 11:19:00;;;;;;;19.38;4.03;;;;;;;;;;5005197;28;20109;-94
2022/12/25 11:21:48;;;;;;;22.88;3.53;;;;;;;;;;5009840;28;20202;-96
2022/12/25 11:24:19;;;;;;;21.67;3.72;;;;;;;;;;5009107;28;20029;-95
2022/12/25 11:26:48;;;;;;;21.75;3.80;;;;;;;;;;5010707;28;20745;-94
2022/12/25 11:29:34;;;;;;;19.33;3.83;;;;;;;;;;5009822;28;20057;-96
2022/12/25 11:31:59;;;;;;;20.35;3.88;;;;;;;;;;5003478;28;20026;-96
2022/12/25 11:34:42;;;;;;;27.45;4.50;;;;;;;;;;5009454;28;20056;-96
2022/12/25 11:37:11;;;;;;;19.50;3.95;;;;;;;;;;5008272;28;20052;-96
2022/12/25 11:39:38;;;;;;;22.88;3.58;;;;;;;;;;5029444;28;20029;-96
2022/12/25 11:42:13;;;;;;;16.10;3.08;;;;;;;;;;5029638;28;20044;-96
2022/12/25 11:44:41;;;;;;;18.58;3.30;;;;;;;;;;5008126;28;20025;-90
2022/12/25 11:47:16;;;;;;;25.67;3.97;;;;;;;;;;5026331;28;20093;-96
2022/12/25 11:49:46;;;;;;;20.02;4.07;;;;;;;;;;5006566;28;20076;-96
2022/12/25 11:52:34;;;;;;;20.98;4.18;;;;;;;;;;5006783;28;20021;-96
2022/12/25 11:55:19;;;;;;;24.13;3.60;;;;;;;;;;5012214;28;20045;-96
2022/12/25 11:57:48;;;;;;;16.20;3.80;;;;;;;;;;5007017;28;20041;-96
2022/12/25 12:00:15;;;;;;;19.75;3.45;;;;;;;;;;5013316;28;20045;-96
2022/12/25 12:02:59;;;;;;;18.42;3.90;;;;;;;;;;5031781;28;20754;-95
2022/12/25 12:05:44;;;;;;;14.57;3.17;;;;;;;;;;5006490;28;20052;-95
2022/12/25 12:08:10;;;;;;;15.90;3.80;;;;;;;;;;5012664;28;20030;-96
2022/12/25 12:10:35;;;;;;;15.88;3.35;;;;;;;;;;5014169;28;20329;-96
2022/12/25 12:13:07;;;;;;;16.75;3.20;;;;;;;;;;5014148;28;20088;-95
2022/12/25 12:15:32;;;;;;;16.80;3.28;;;;;;;;;;5011512;28;20033;-96
2022/12/25 12:18:07;;;;;;;18.50;3.67;;;;;;;;;;5015427;28;20043;-96
2022/12/25 12:20:34;;;;;;;19.80;3.72;;;;;;;;;;5010560;28;20025;-96
2022/12/25 12:23:03;;;;;;;14.38;3.40;;;;;;;;;;5012792;28;20719;-96
2022/12/25 12:25:29;;;;;;;16.23;3.53;;;;;;;;;;5008776;28;20120;-95
2022/12/25 12:27:59;;;;;;;23.92;4.35;;;;;;;;;;5014754;28;20874;-95
2022/12/25 12:30:30;;;;;;;23.73;4.18;;;;;;;;;;5009263;28;20112;-96
2022/12/25 12:33:04;;;;;;;21.90;3.60;;;;;;;;;;5027967;28;20033;-96
2022/12/25 12:35:30;;;;;;;20.25;4.45;;;;;;;;;;5013873;28;20031;-96
2022/12/25 12:38:04;;;;;;;19.40;3.80;;;;;;;;;;5032883;28;20814;-96
2022/12/25 12:40:35;;;;;;;23.85;4.18;;;;;;;;;;5009099;28;20021;-96
2022/12/25 12:43:01;;;;;;;25.23;4.43;;;;;;;;;;5026082;28;20043;-93
2022/12/25 12:45:34;;;;;;;21.65;3.53;;;;;;;;;;5011221;28;20111;-94
2022/12/25 12:48:15;;;;;;;21.63;4.07;;;;;;;;;;5007428;28;20026;-94
2022/12/25 12:50:41;;;;;;;21.05;3.38;;;;;;;;;;5012314;28;20535;-95
2022/12/25 12:53:25;;;;;;;13.18;3.45;;;;;;;;;;5026454;28;20030;-96
2022/12/25 12:55:52;;;;;;;22.98;4.47;;;;;;;;;;5008999;28;20025;-96
2022/12/25 12:58:31;;;;;;;18.88;3.45;;;;;;;;;;5021782;28;20099;-96
2022/12/25 13:00:57;;;;;;;19.77;3.50;;;;;;;;;;5008243;28;20037;-96
2022/12/25 13:03:31;;;;;;;22.53;4.73;;;;;;;;;;5032604;28;20496;-96
2022/12/25 13:06:00;;;;;;;19.25;3.67;;;;;;;;;;5010114;28;20275;-96
2022/12/25 13:08:44;;;;;;;21.95;3.75;;;;;;;;;;5011289;28;20065;-96
2022/12/25 13:11:22;;;;;;;19.90;3.35;;;;;;;;;;5011568;28;20025;-96
2022/12/25 13:13:56;;;;;;;20.25;3.42;;;;;;;;;;5014265;28;20157;-96
2022/12/25 13:16:30;;;;;;;19.80;4.13;;;;;;;;;;5014072;28;20033;-96
2022/12/25 13:18:56;;;;;;;16.48;3.38;;;;;;;;;;5038042;28;20032;-95
2022/12/25 13:21:24;;;;;;;21.35;4.22;;;;;;;;;;5017852;28;20026;-96
2022/12/25 13:23:57;;;;;;;21.65;3.80;;;;;;;;;;5026886;28;20017;-96
2022/12/25 13:26:23;;;;;;;19.52;3.50;;;;;;;;;;5037992;28;20038;-96
2022/12/25 13:28:51;;;;;;;17.70;4.03;;;;;;;;;;5020894;28;20010;-96
2022/12/25 13:31:21;;;;;;;17.75;4.43;;;;;;;;;;5026130;28;20093;-96
2022/12/25 13:34:03;;;;;;;17.25;4.47;;;;;;;;;;5040258;28;20026;-96
2022/12/25 13:36:29;;;;;;;21.00;4.78;;;;;;;;;;5023203;28;20032;-95
2022/12/25 13:38:56;;;;;;;17.45;3.78;;;;;;;;;;5011326;28;20374;-94
2022/12/25 13:44:15;;;;;;;18.10;3.78;;;;;;;;;;5025325;28;20028;-96
2022/12/25 13:46:40;;;;;;;16.35;3.65;;;;;;;;;;5012645;28;20588;-96
2022/12/25 13:49:12;;;;;;;17.98;4.43;;;;;;;;;;5013287;28;20052;-96
2022/12/25 13:51:37;;;;;;;17.73;3.65;;;;;;;;;;5007399;28;20108;-95
2022/12/25 13:54:03;;;;;;;17.33;3.15;;;;;;;;;;5014318;28;20085;-95
2022/12/25 13:56:29;;;;;;;17.90;3.30;;;;;;;;;;5011610;28;20037;-94
2022/12/25 13:58:54;;;;;;;15.10;3.10;;;;;;;;;;5025393;28;20037;-96
2022/12/25 14:01:21;;;;;;;16.50;3.28;;;;;;;;;;5016955;28;20025;-94
2022/12/25 14:03:47;;;;;;;12.73;3.35;;;;;;;;;;5032270;28;20065;-95
2022/12/25 14:06:38;;;;;;;16.20;3.08;;;;;;;;;;5006618;28;20370;-94
2022/12/25 14:09:04;;;;;;;12.95;2.75;;;;;;;;;;5005750;28;20054;-95
2022/12/25 14:11:30;;;;;;;14.18;2.78;;;;;;;;;;5032523;28;20029;-95
2022/12/25 14:14:04;;;;;;;14.00;2.88;;;;;;;;;;5007666;28;20542;-96
2022/12/25 14:16:30;;;;;;;16.33;3.33;;;;;;;;;;5009706;28;20492;-95
2022/12/25 14:19:06;;;;;;;11.85;2.58;;;;;;;;;;5032020;28;20138;-96
2022/12/25 14:21:33;;;;;;;15.43;2.60;;;;;;;;;;5011006;28;20025;-96
2022/12/25 14:23:59;;;;;;;12.73;2.42;;;;;;;;;;5006801;28;20300;-96
2022/12/25 14:26:26;;;;;;;13.38;2.50;;;;;;;;;;5012901;28;20025;-95
2022/12/25 14:28:53;;;;;;;15.77;3.08;;;;;;;;;;5009768;28;20021;-95
2022/12/25 14:31:19;;;;;;;14.00;2.45;;;;;;;;;;5001562;28;20025;-95
2022/12/25 14:33:44;;;;;;;11.10;2.25;;;;;;;;;;5007570;28;20022;-95
2022/12/25 14:36:11;;;;;;;9.90;1.98;;;;;;;;;;5022439;28;20041;-96
2022/12/25 14:38:39;;;;;;;11.82;2.15;;;;;;;;;;4998084;28;20053;-96
2022/12/25 14:41:36;;;;;;;12.32;2.85;;;;;;;;;;5006781;28;20097;-96
2022/12/25 14:44:04;;;;;;;13.32;2.88;;;;;;;;;;5014627;28;20412;-96
2022/12/25 14:46:30;;;;;;;10.40;2.67;;;;;;;;;;5005825;28;20204;-95
2022/12/25 14:48:59;;;;;;;13.75;2.50;;;;;;;;;;5003453;28;20104;-96
2022/12/25 14:51:24;;;;;;;9.85;2.10;;;;;;;;;;5004028;28;20038;-95
2022/12/25 14:53:52;;;;;;;13.52;2.85;;;;;;;;;;5021961;28;20035;-95
2022/12/25 14:56:38;;;;;;;13.85;3.15;;;;;;;;;;5005592;28;20771;-95
2022/12/25 14:59:04;;;;;;;14.30;2.65;;;;;;;;;;5003013;28;20026;-94
2022/12/25 15:01:52;;;;;;;11.70;2.75;;;;;;;;;;5021025;28;20060;-96
2022/12/25 15:04:19;;;;;;;14.07;2.55;;;;;;;;;;4992760;28;20056;-93
2022/12/25 15:06:58;;;;;;;15.63;3.42;;;;;;;;;;5029836;28;20055;-95
2022/12/25 15:09:25;;;;;;;11.45;2.80;;;;;;;;;;5006091;28;20080;-95
2022/12/25 15:11:54;;;;;;;11.82;2.42;;;;;;;;;;5004668;28;20029;-96
2022/12/25 15:14:20;;;;;;;11.00;2.05;;;;;;;;;;5010084;28;20033;-95
2022/12/25 15:16:48;;;;;;;8.50;2.25;;;;;;;;;;5011751;28;20021;-96
2022/12/25 15:19:19;;;;;;;13.65;2.25;;;;;;;;;;5011991;28;20130;-95
2022/12/25 15:21:45;;;;;;;13.20;2.60;;;;;;;;;;5006395;28;20068;-94
2022/12/25 15:24:13;;;;;;;13.02;2.30;;;;;;;;;;5007367;28;20481;-95
2022/12/25 15:26:39;;;;;;;10.73;1.98;;;;;;;;;;5008911;28;20036;-96
2022/12/25 15:29:07;;;;;;;11.77;2.42;;;;;;;;;;5013093;28;20617;-96
2022/12/25 15:31:34;;;;;;;8.52;1.77;;;;;;;;;;5012618;28;20104;-96
2022/12/25 15:34:01;;;;;;;10.93;2.00;;;;;;;;;;5009471;28;20021;-96
2022/12/25 15:36:26;;;;;;;9.45;1.95;;;;;;;;;;5010020;28;20033;-95
2022/12/25 15:39:03;;;;;;;9.55;1.98;;;;;;;;;;5017195;28;20049;-95
2022/12/25 15:44:16;;;;;;;9.70;1.70;;;;;;;;;;5040333;28;20277;-95
2022/12/25 15:46:41;;;;;;;18.08;2.65;;;;;;;;;;5009928;28;20034;-93
2022/12/25 15:49:08;;;;;;;11.27;1.60;;;;;;;;;;5018096;28;20119;-94
2022/12/25 15:51:34;;;;;;;10.02;1.75;;;;;;;;;;5024618;28;20029;-96
2022/12/25 15:53:59;;;;;;;7.22;1.85;;;;;;;;;;5021842;28;20017;-96
2022/12/25 15:56:25;;;;;;;11.20;2.42;;;;;;;;;;5011211;28;20029;-93
2022/12/25 15:58:50;;;;;;;9.45;1.77;;;;;;;;;;5014136;28;20148;-95
2022/12/25 16:01:16;;;;;;;7.88;1.65;;;;;;;;;;5009165;28;20025;-95
2022/12/25 16:03:50;;;;;;;9.43;2.08;;;;;;;;;;5026308;28;20128;-95
2022/12/25 16:06:17;;;;;;;11.98;2.20;;;;;;;;;;5011388;28;20776;-94
2022/12/25 16:08:42;;;;;;;10.48;1.83;;;;;;;;;;5029261;28;20017;-94
2022/12/25 16:11:08;;;;;;;9.65;1.80;;;;;;;;;;5015559;28;20441;-93
2022/12/25 16:13:33;;;;;;;11.13;1.92;;;;;;;;;;5025525;28;20026;-95
2022/12/25 16:16:00;;;;;;;10.77;1.88;;;;;;;;;;5007409;28;20108;-95
2022/12/25 16:18:25;;;;;;;11.65;2.00;;;;;;;;;;5023857;28;20051;-96
2022/12/25 16:20:51;;;;;;;7.78;1.63;;;;;;;;;;5013462;28;20112;-96
2022/12/25 16:23:17;;;;;;;11.50;2.17;;;;;;;;;;5018446;28;20447;-96
2022/12/25 16:25:45;;;;;;;10.73;1.85;;;;;;;;;;5011191;28;20017;-96
2022/12/25 16:28:11;;;;;;;11.00;1.88;;;;;;;;;;5010420;28;20026;-96
2022/12/25 16:30:37;;;;;;;7.95;1.88;;;;;;;;;;5006892;28;20025;-95